Time;durP1;ratioP1;P1;durP2;ratioP2;P2;SDS_P1;SDS_P2;PMS_P1;PMS_P2;Temp;Humidity;BMP_temperature;BMP_pressure;BME280_temperature;BME280_humidity;BME280_pressure;Samples;Min_cycle;Max_cycle;Signal;HPM_P1;HPM_P2
2022/05/05 00:02:15;;;;;;;11.87;8.20;;;16.10;57.20;;;;;;5077994;28;20470;-69
2022/05/05 00:04:43;;;;;;;11.10;7.57;;;16.10;57.70;;;;;;5077073;28;20484;-69
2022/05/05 00:07:09;;;;;;;10.20;8.17;;;16.10;58.00;;;;;;5077136;28;20456;-69
2022/05/05 00:09:37;;;;;;;11.03;7.93;;;16.20;58.30;;;;;;5076505;28;21011;-69
2022/05/05 00:14:49;;;;;;;14.70;8.33;;;16.10;58.90;;;;;;5076545;28;20400;-69
2022/05/05 00:17:16;;;;;;;9.70;8.20;;;16.10;58.80;;;;;;5076539;28;20444;-69
2022/05/05 00:19:44;;;;;;;13.40;8.07;;;16.10;58.90;;;;;;5076335;28;20514;-69
2022/05/05 00:22:13;;;;;;;14.77;9.43;;;16.20;59.10;;;;;;5076397;28;20471;-69
2022/05/05 00:24:39;;;;;;;10.40;8.17;;;16.20;59.20;;;;;;5076345;28;20453;-69
2022/05/05 00:27:07;;;;;;;11.67;7.67;;;16.20;59.60;;;;;;5076254;28;20810;-69
2022/05/05 00:29:33;;;;;;;11.57;8.47;;;16.10;60.60;;;;;;5076291;28;20487;-70
2022/05/05 00:32:00;;;;;;;11.27;7.80;;;16.20;60.90;;;;;;5076239;28;20475;-69
2022/05/05 00:34:27;;;;;;;12.60;8.53;;;16.20;60.50;;;;;;5075704;28;20441;-69
2022/05/05 00:36:55;;;;;;;11.70;7.80;;;16.20;60.90;;;;;;5075849;28;20951;-69
2022/05/05 00:39:22;;;;;;;11.17;7.73;;;16.10;61.10;;;;;;5076096;28;20445;-70
2022/05/05 00:41:49;;;;;;;10.40;8.47;;;16.10;61.50;;;;;;5076091;28;20546;-69
2022/05/05 00:44:16;;;;;;;15.93;7.87;;;16.10;62.30;;;;;;5075813;28;20459;-69
2022/05/05 00:46:49;;;;;;;13.03;8.40;;;16.00;62.30;;;;;;5075949;28;20453;-69
2022/05/05 00:49:16;;;;;;;14.07;8.60;;;16.00;62.50;;;;;;5076044;28;20518;-69
2022/05/05 00:51:42;;;;;;;10.77;7.87;;;16.00;62.70;;;;;;5075902;28;20488;-69
2022/05/05 00:54:11;;;;;;;10.03;7.33;;;16.00;62.80;;;;;;5075593;28;20944;-69
2022/05/05 00:56:38;;;;;;;13.77;8.20;;;16.00;63.00;;;;;;5075818;28;20460;-69
2022/05/05 00:59:06;;;;;;;13.13;8.27;;;16.10;62.90;;;;;;5075791;28;20480;-69
2022/05/05 01:01:35;;;;;;;10.57;8.00;;;16.10;63.20;;;;;;5075615;28;20492;-69
2022/05/05 01:04:02;;;;;;;13.63;8.43;;;16.10;63.50;;;;;;5075380;28;20455;-69
2022/05/05 01:06:30;;;;;;;8.77;7.40;;;16.10;63.90;;;;;;5075450;28;20480;-69
2022/05/05 01:08:57;;;;;;;12.00;7.63;;;16.10;63.90;;;;;;5075586;28;20555;-69
2022/05/05 01:11:25;;;;;;;12.17;7.47;;;16.10;63.90;;;;;;5075409;28;20480;-69
2022/05/05 01:13:52;;;;;;;10.67;7.30;;;16.10;64.30;;;;;;5075571;28;20456;-69
2022/05/05 01:16:19;;;;;;;11.70;7.90;;;16.10;64.50;;;;;;5075176;28;20974;-69
2022/05/05 01:18:46;;;;;;;8.80;7.30;;;16.00;64.50;;;;;;5076348;28;20467;-69
2022/05/05 01:21:13;;;;;;;12.23;8.53;;;16.00;64.60;;;;;;5075721;28;20476;-69
2022/05/05 01:23:41;;;;;;;12.00;7.87;;;16.10;65.40;;;;;;5075556;28;20437;-69
2022/05/05 01:28:53;;;;;;;12.57;8.60;;;16.00;66.50;;;;;;5075461;28;21029;-69
2022/05/05 01:31:20;;;;;;;11.07;7.47;;;15.90;66.00;;;;;;5075184;28;20518;-69
2022/05/05 01:33:47;;;;;;;9.37;7.00;;;15.90;65.40;;;;;;5075192;28;20491;-69
2022/05/05 01:36:14;;;;;;;10.30;8.00;;;15.90;64.60;;;;;;5075241;28;20452;-69
2022/05/05 01:38:44;;;;;;;12.73;7.83;;;15.90;65.60;;;;;;5075209;28;20437;-69
2022/05/05 01:41:12;;;;;;;10.77;7.67;;;15.90;65.90;;;;;;5075041;28;20484;-69
2022/05/05 01:43:41;;;;;;;9.87;7.40;;;15.90;66.60;;;;;;5074868;28;20582;-69
2022/05/05 01:46:08;;;;;;;13.10;6.90;;;15.90;66.40;;;;;;5074677;28;20957;-69
2022/05/05 01:48:34;;;;;;;9.23;7.43;;;15.90;66.40;;;;;;5074875;28;20486;-69
2022/05/05 01:51:01;;;;;;;9.13;7.23;;;15.90;66.40;;;;;;5074940;28;20468;-69
2022/05/05 01:53:36;;;;;;;10.33;6.30;;;15.80;66.80;;;;;;5074756;28;20477;-69
2022/05/05 01:56:05;;;;;;;12.73;7.43;;;15.80;67.00;;;;;;5074180;28;20942;-69
2022/05/05 01:58:32;;;;;;;14.43;7.70;;;15.80;67.60;;;;;;5074551;28;20455;-69
2022/05/05 02:00:59;;;;;;;10.10;7.90;;;15.80;67.60;;;;;;5073987;28;20838;-69
2022/05/05 02:03:25;;;;;;;13.50;7.40;;;15.80;67.40;;;;;;5074490;28;20452;-69
2022/05/05 02:05:52;;;;;;;9.33;7.53;;;15.80;67.90;;;;;;5074527;28;20460;-69
2022/05/05 02:08:19;;;;;;;8.43;7.40;;;15.80;67.70;;;;;;5074091;28;20444;-69
2022/05/05 02:10:46;;;;;;;8.33;7.10;;;15.80;67.90;;;;;;5074369;28;20476;-69
2022/05/05 02:13:14;;;;;;;8.67;7.47;;;15.80;67.90;;;;;;5074417;28;20457;-69
2022/05/05 02:15:41;;;;;;;12.70;7.30;;;15.80;68.00;;;;;;5074464;28;20444;-69
2022/05/05 02:18:10;;;;;;;10.10;7.30;;;15.70;68.70;;;;;;5074596;28;20862;-69
2022/05/05 02:20:37;;;;;;;10.13;7.27;;;15.80;69.00;;;;;;5074401;28;20441;-69
2022/05/05 02:23:04;;;;;;;19.73;7.57;;;15.70;68.40;;;;;;5074236;28;20433;-69
2022/05/05 02:25:31;;;;;;;15.63;7.70;;;15.80;68.80;;;;;;5074146;28;20477;-69
2022/05/05 02:27:58;;;;;;;10.23;8.37;;;15.70;68.80;;;;;;5073860;28;20445;-69
2022/05/05 02:30:27;;;;;;;10.70;7.00;;;15.70;68.40;;;;;;5073853;28;20488;-69
2022/05/05 02:32:54;;;;;;;11.50;6.50;;;15.70;67.10;;;;;;5074004;28;20479;-69
2022/05/05 02:35:21;;;;;;;9.00;7.23;;;15.70;67.10;;;;;;5073978;28;20456;-69
2022/05/05 02:40:33;;;;;;;13.17;6.93;;;15.70;67.20;;;;;;5073912;28;20400;-69
2022/05/05 02:43:00;;;;;;;10.90;7.20;;;15.70;67.40;;;;;;5073558;28;20488;-69
2022/05/05 02:45:29;;;;;;;10.63;8.07;;;15.70;67.50;;;;;;5074001;28;20530;-69
2022/05/05 02:47:56;;;;;;;12.20;7.20;;;15.70;68.10;;;;;;5073832;28;20449;-69
2022/05/05 02:50:23;;;;;;;8.83;6.87;;;15.60;68.30;;;;;;5073758;28;20488;-69
2022/05/05 02:52:49;;;;;;;12.47;7.90;;;15.60;68.20;;;;;;5073785;28;20500;-69
2022/05/05 02:55:15;;;;;;;12.50;8.10;;;15.50;68.30;;;;;;5073642;28;20452;-69
2022/05/05 02:57:42;;;;;;;9.60;8.10;;;15.50;68.30;;;;;;5073821;28;20452;-69
2022/05/05 03:00:12;;;;;;;8.03;6.90;;;15.50;68.30;;;;;;5073624;28;20195;-69
2022/05/05 03:02:41;;;;;;;13.50;7.73;;;15.50;68.60;;;;;;5073257;28;20468;-69
2022/05/05 03:05:09;;;;;;;13.30;7.40;;;15.50;68.90;;;;;;5073482;28;20781;-69
2022/05/05 03:07:36;;;;;;;13.03;7.37;;;15.50;69.20;;;;;;5073503;28;20448;-69
2022/05/05 03:10:03;;;;;;;10.37;7.47;;;15.40;69.50;;;;;;5073340;28;20516;-69
2022/05/05 03:12:30;;;;;;;12.23;8.40;;;15.40;69.90;;;;;;5072873;28;20479;-69
2022/05/05 03:14:57;;;;;;;9.23;7.40;;;15.40;70.00;;;;;;5073286;28;20463;-70
2022/05/05 03:17:23;;;;;;;11.23;8.07;;;15.40;70.20;;;;;;5073337;28;20444;-70
2022/05/05 03:19:51;;;;;;;12.80;8.00;;;15.30;70.20;;;;;;5073036;28;20441;-70
2022/05/05 03:22:18;;;;;;;11.40;7.80;;;15.30;70.40;;;;;;5073171;28;20468;-70
2022/05/05 03:24:45;;;;;;;10.07;7.87;;;15.30;70.80;;;;;;5073489;28;20447;-70
2022/05/05 03:27:12;;;;;;;14.60;8.67;;;15.30;71.20;;;;;;5072981;28;20815;-70
2022/05/05 03:29:39;;;;;;;14.43;8.03;;;15.20;71.50;;;;;;5072810;28;20491;-70
2022/05/05 03:32:06;;;;;;;14.67;8.17;;;15.10;71.80;;;;;;5073315;28;20469;-70
2022/05/05 03:34:33;;;;;;;13.40;8.30;;;15.10;71.90;;;;;;5073411;28;20448;-70
2022/05/05 03:37:01;;;;;;;10.50;7.37;;;15.10;71.60;;;;;;5073260;28;20471;-70
2022/05/05 03:39:28;;;;;;;11.00;7.90;;;15.00;71.70;;;;;;5073118;28;20455;-70
2022/05/05 03:41:55;;;;;;;16.33;9.40;;;15.00;71.50;;;;;;5073219;28;20479;-70
2022/05/05 03:44:22;;;;;;;12.93;8.63;;;15.00;71.50;;;;;;5072866;28;20495;-70
2022/05/05 03:46:48;;;;;;;12.10;8.80;;;15.10;71.70;;;;;;5072762;28;20970;-70
2022/05/05 03:49:16;;;;;;;12.40;8.90;;;15.00;70.90;;;;;;5073006;28;20555;-70
2022/05/05 03:51:43;;;;;;;12.70;8.93;;;15.10;71.40;;;;;;5072906;28;20484;-70
2022/05/05 03:54:11;;;;;;;12.90;9.00;;;15.00;71.50;;;;;;5073795;28;20870;-70
2022/05/05 03:56:37;;;;;;;12.07;7.90;;;15.00;71.50;;;;;;5073961;28;20459;-70
2022/05/05 03:59:04;;;;;;;15.60;9.97;;;15.00;71.50;;;;;;5073042;28;20448;-70
2022/05/05 04:01:31;;;;;;;12.13;9.10;;;15.00;71.20;;;;;;5072788;28;20975;-70
2022/05/05 04:03:57;;;;;;;14.47;9.50;;;15.00;71.20;;;;;;5073231;28;20464;-70
2022/05/05 04:06:24;;;;;;;15.63;9.90;;;15.00;71.00;;;;;;5072661;28;20452;-70
2022/05/05 04:08:51;;;;;;;14.03;9.50;;;15.10;70.80;;;;;;5073014;28;20455;-70
2022/05/05 04:11:19;;;;;;;17.20;10.20;;;15.00;70.40;;;;;;5072779;28;20513;-70
2022/05/05 04:13:47;;;;;;;16.00;9.30;;;15.00;69.80;;;;;;5072933;28;20444;-70
2022/05/05 04:16:14;;;;;;;13.73;8.80;;;15.00;70.20;;;;;;5073396;28;20543;-70
2022/05/05 04:18:41;;;;;;;13.47;9.30;;;14.90;70.40;;;;;;5073097;28;20828;-69
2022/05/05 04:21:08;;;;;;;11.80;8.90;;;14.80;70.50;;;;;;5072184;28;20890;-70
2022/05/05 04:23:35;;;;;;;14.20;8.23;;;14.80;70.70;;;;;;5072676;28;20440;-69
2022/05/05 04:26:02;;;;;;;13.40;9.30;;;14.80;70.80;;;;;;5076161;28;20448;-70
2022/05/05 04:28:31;;;;;;;12.50;9.73;;;14.70;70.80;;;;;;5076383;28;20449;-70
2022/05/05 04:30:58;;;;;;;10.83;8.70;;;14.70;70.90;;;;;;5076144;28;20488;-70
2022/05/05 04:33:25;;;;;;;20.17;10.47;;;14.70;70.90;;;;;;5075903;28;20948;-70
2022/05/05 04:35:51;;;;;;;13.17;9.27;;;14.60;70.90;;;;;;5076515;28;20448;-70
2022/05/05 04:38:18;;;;;;;12.37;10.43;;;14.60;71.40;;;;;;5076487;28;20437;-72
2022/05/05 04:40:45;;;;;;;16.00;10.47;;;14.50;71.60;;;;;;5077784;28;20447;-72
2022/05/05 04:43:12;;;;;;;15.27;9.40;;;14.60;71.80;;;;;;5077282;28;20468;-72
2022/05/05 04:45:40;;;;;;;14.93;10.20;;;14.50;71.90;;;;;;5077563;28;20448;-72
2022/05/05 04:48:08;;;;;;;15.23;10.40;;;14.50;71.40;;;;;;5077355;28;20500;-72
2022/05/05 04:50:35;;;;;;;11.13;9.30;;;14.50;71.30;;;;;;5077057;28;21018;-73
2022/05/05 04:53:01;;;;;;;19.20;10.50;;;14.50;71.40;;;;;;5077483;28;20432;-72
2022/05/05 04:55:28;;;;;;;16.73;9.73;;;14.40;71.40;;;;;;5078112;28;20455;-72
2022/05/05 04:57:55;;;;;;;16.83;10.70;;;14.40;71.00;;;;;;5077179;28;20868;-72
2022/05/05 05:00:22;;;;;;;14.43;10.63;;;14.40;71.10;;;;;;5077548;28;20445;-73
2022/05/05 05:02:50;;;;;;;12.13;9.73;;;14.50;71.70;;;;;;5077894;28;20507;-72
2022/05/05 05:05:17;;;;;;;17.30;11.87;;;14.50;72.30;;;;;;5078054;28;20456;-73
2022/05/05 05:07:44;;;;;;;15.50;10.27;;;14.50;72.50;;;;;;5077573;28;21009;-72
2022/05/05 05:10:11;;;;;;;16.63;9.73;;;14.50;72.30;;;;;;5077871;28;20488;-73
2022/05/05 05:12:38;;;;;;;15.90;11.17;;;14.50;72.20;;;;;;5077530;28;20486;-72
2022/05/05 05:15:06;;;;;;;13.07;10.50;;;14.50;72.40;;;;;;5076936;28;20904;-72
2022/05/05 05:17:33;;;;;;;11.67;10.13;;;14.50;72.40;;;;;;5077812;28;20445;-73
2022/05/05 05:20:01;;;;;;;13.17;10.10;;;14.50;72.40;;;;;;5077458;28;20441;-73
2022/05/05 05:22:28;;;;;;;13.37;11.57;;;14.50;71.70;;;;;;5078305;28;20470;-72
2022/05/05 05:24:54;;;;;;;19.20;11.53;;;14.50;71.50;;;;;;5077414;28;20455;-72
2022/05/05 05:27:21;;;;;;;19.63;11.37;;;14.50;71.60;;;;;;5077703;28;20444;-73
2022/05/05 05:29:48;;;;;;;16.73;10.37;;;14.50;71.50;;;;;;5077639;28;20479;-73
2022/05/05 05:32:15;;;;;;;14.10;9.63;;;14.60;71.90;;;;;;5077373;28;20519;-73
2022/05/05 05:34:41;;;;;;;19.67;12.07;;;14.60;71.70;;;;;;5077745;28;20440;-72
2022/05/05 05:37:10;;;;;;;15.47;10.90;;;14.60;72.70;;;;;;5076588;28;20510;-72
2022/05/05 05:39:37;;;;;;;14.13;11.63;;;14.60;72.30;;;;;;5078311;28;20455;-72
2022/05/05 05:42:06;;;;;;;21.07;12.10;;;14.60;72.60;;;;;;5077715;28;20483;-72
2022/05/05 05:44:33;;;;;;;21.50;13.40;;;14.70;72.40;;;;;;5077349;28;20514;-72
2022/05/05 05:47:00;;;;;;;18.63;12.40;;;14.70;72.20;;;;;;5077262;28;20459;-73
2022/05/05 05:49:27;;;;;;;18.30;13.20;;;14.80;72.20;;;;;;5077393;28;20445;-73
2022/05/05 05:51:53;;;;;;;17.63;12.70;;;14.80;72.40;;;;;;5076828;28;20503;-73
2022/05/05 05:54:21;;;;;;;16.20;12.20;;;14.90;71.70;;;;;;5077114;28;20940;-72
2022/05/05 05:56:48;;;;;;;19.80;14.17;;;14.90;71.60;;;;;;5077375;28;20425;-72
2022/05/05 05:59:15;;;;;;;16.80;11.67;;;14.90;71.80;;;;;;5077453;28;20527;-72
2022/05/05 06:04:26;;;;;;;17.90;11.93;;;15.10;71.00;;;;;;5076492;28;20401;-72
2022/05/05 06:06:53;;;;;;;15.27;12.20;;;15.30;71.50;;;;;;5076613;28;20611;-72
2022/05/05 06:09:22;;;;;;;15.27;12.20;;;15.40;71.50;;;;;;5076966;28;20472;-72
2022/05/05 06:11:49;;;;;;;14.50;11.70;;;15.50;70.70;;;;;;5075945;28;20584;-73
2022/05/05 06:14:16;;;;;;;14.57;10.87;;;15.60;69.20;;;;;;5076589;28;20452;-73
2022/05/05 06:16:43;;;;;;;18.10;11.57;;;15.70;68.40;;;;;;5076245;28;20448;-73
2022/05/05 06:19:10;;;;;;;16.97;10.87;;;15.80;66.70;;;;;;5076093;28;20456;-73
2022/05/05 06:21:37;;;;;;;19.17;12.90;;;15.80;66.20;;;;;;5075856;28;20991;-73
2022/05/05 06:24:04;;;;;;;20.63;13.30;;;15.90;67.20;;;;;;5076493;28;20823;-72
2022/05/05 06:26:33;;;;;;;22.90;14.20;;;16.00;67.80;;;;;;5075715;28;20448;-72
2022/05/05 06:29:00;;;;;;;22.37;13.43;;;16.00;69.10;;;;;;5076111;28;20451;-73
2022/05/05 06:31:27;;;;;;;23.53;14.70;;;16.00;67.50;;;;;;5076570;28;20495;-73
2022/05/05 06:33:54;;;;;;;34.03;16.00;;;16.00;67.80;;;;;;5076344;28;20540;-72
2022/05/05 06:36:21;;;;;;;24.97;15.47;;;16.00;67.50;;;;;;5076011;28;20896;-72
2022/05/05 06:38:52;;;;;;;25.47;14.43;;;16.00;67.80;;;;;;5076490;28;20452;-72
2022/05/05 06:41:18;;;;;;;23.57;15.27;;;16.00;67.60;;;;;;5075830;28;20460;-73
2022/05/05 06:43:46;;;;;;;25.60;15.70;;;16.00;67.40;;;;;;5075321;28;20457;-73
2022/05/05 06:46:13;;;;;;;26.40;15.33;;;16.10;67.50;;;;;;5075683;28;20455;-72
2022/05/05 06:48:41;;;;;;;33.23;16.10;;;16.20;67.40;;;;;;5075749;28;20455;-73
2022/05/05 06:51:08;;;;;;;31.93;15.63;;;16.30;67.90;;;;;;5075759;28;20488;-73
2022/05/05 06:53:34;;;;;;;20.87;15.00;;;16.40;67.50;;;;;;5075390;28;20455;-73
2022/05/05 06:56:01;;;;;;;22.00;13.90;;;16.60;67.20;;;;;;5075491;28;20441;-72
2022/05/05 06:58:28;;;;;;;24.03;14.40;;;16.80;66.10;;;;;;5074908;28;20809;-72
2022/05/05 07:03:41;;;;;;;18.80;14.07;;;17.20;62.50;;;;;;5076039;28;20532;-73
2022/05/05 07:06:09;;;;;;;23.83;15.40;;;17.30;63.00;;;;;;5075746;28;20532;-73
2022/05/05 07:11:21;;;;;;;22.07;14.80;;;17.50;62.30;;;;;;5074940;28;20571;-73
2022/05/05 07:13:47;;;;;;;27.20;15.37;;;17.60;62.00;;;;;;5074914;28;20447;-73
2022/05/05 07:16:15;;;;;;;22.40;15.10;;;17.80;61.60;;;;;;5075502;28;20444;-73
2022/05/05 07:18:42;;;;;;;22.70;14.23;;;17.90;61.80;;;;;;5074251;28;20456;-73
2022/05/05 07:21:09;;;;;;;18.57;14.50;;;17.90;60.80;;;;;;5075901;28;20464;-73
2022/05/05 07:23:36;;;;;;;22.77;14.30;;;18.00;60.40;;;;;;5075368;28;20448;-73
2022/05/05 07:26:03;;;;;;;19.10;13.50;;;18.10;59.30;;;;;;5075135;28;20453;-73
2022/05/05 07:28:29;;;;;;;33.30;14.93;;;18.20;58.70;;;;;;5075835;28;20453;-73
2022/05/05 07:30:56;;;;;;;21.43;12.50;;;18.40;58.20;;;;;;5075729;28;20511;-73
2022/05/05 07:33:25;;;;;;;21.80;14.63;;;18.50;57.30;;;;;;5075343;28;20989;-73
2022/05/05 07:35:52;;;;;;;20.37;11.80;;;18.70;57.30;;;;;;5075504;28;20464;-73
2022/05/05 07:38:18;;;;;;;16.57;10.70;;;18.80;56.90;;;;;;5075594;28;20452;-73
2022/05/05 07:40:45;;;;;;;17.40;12.13;;;19.10;55.50;;;;;;5074823;28;20817;-73
2022/05/05 07:43:12;;;;;;;15.93;10.23;;;19.40;55.90;;;;;;5074534;28;20466;-72
2022/05/05 07:45:39;;;;;;;13.47;9.27;;;19.60;52.90;;;;;;5074945;28;20444;-73
2022/05/05 07:48:07;;;;;;;14.70;10.57;;;19.90;52.10;;;;;;5075436;28;20456;-73
2022/05/05 07:50:36;;;;;;;12.47;10.50;;;20.20;51.30;;;;;;5073469;28;20480;-73
2022/05/05 07:53:03;;;;;;;11.33;9.50;;;20.60;50.90;;;;;;5073992;28;20452;-73
2022/05/05 07:55:30;;;;;;;14.63;10.57;;;20.90;50.30;;;;;;5075056;28;20484;-72
2022/05/05 07:57:58;;;;;;;15.97;9.20;;;21.30;48.80;;;;;;5075042;28;20433;-73
2022/05/05 08:00:25;;;;;;;15.43;8.97;;;21.60;46.50;;;;;;5078163;28;20461;-73
2022/05/05 08:02:51;;;;;;;13.07;9.07;;;21.80;46.40;;;;;;5078539;28;20468;-73
2022/05/05 08:05:18;;;;;;;13.53;10.20;;;22.10;45.60;;;;;;5079127;28;20433;-73
2022/05/05 08:07:49;;;;;;;12.10;8.30;;;22.30;44.70;;;;;;5078268;28;20444;-73
2022/05/05 08:10:17;;;;;;;14.60;9.67;;;22.50;43.60;;;;;;5079625;28;20467;-73
2022/05/05 08:12:45;;;;;;;11.20;9.30;;;22.40;43.30;;;;;;5078531;28;20464;-73
2022/05/05 08:15:12;;;;;;;10.80;9.00;;;22.50;43.10;;;;;;5078897;28;20510;-73
2022/05/05 08:17:40;;;;;;;17.23;9.90;;;22.40;43.50;;;;;;5079262;28;20452;-73
2022/05/05 08:20:09;;;;;;;14.33;9.30;;;22.60;43.90;;;;;;5079107;28;20463;-73
2022/05/05 08:22:36;;;;;;;11.37;8.10;;;22.60;45.00;;;;;;5078977;28;20472;-73
2022/05/05 08:30:33;;;;;;;12.17;9.93;;;22.90;42.70;;;;;;5078539;28;20456;-73
2022/05/05 08:33:00;;;;;;;17.50;9.43;;;23.00;41.60;;;;;;5078231;28;20464;-73
2022/05/05 08:35:28;;;;;;;12.50;9.00;;;23.00;41.60;;;;;;5077857;28;21029;-73
2022/05/05 08:37:55;;;;;;;16.30;7.90;;;22.90;41.90;;;;;;5078393;28;20483;-73
2022/05/05 08:40:26;;;;;;;13.50;8.13;;;22.90;41.10;;;;;;5078819;28;20449;-73
2022/05/05 08:42:53;;;;;;;9.27;7.10;;;22.70;41.10;;;;;;5077739;28;20526;-73
2022/05/05 08:45:20;;;;;;;10.33;5.03;;;22.60;40.60;;;;;;5078232;28;20905;-73
2022/05/05 08:47:48;;;;;;;9.70;6.67;;;22.80;41.00;;;;;;5078675;28;20484;-73
2022/05/05 08:50:16;;;;;;;9.23;6.80;;;23.00;40.30;;;;;;5078399;28;20472;-74
2022/05/05 08:52:48;;;;;;;8.63;5.77;;;23.20;39.70;;;;;;5078400;28;20476;-73
2022/05/05 08:55:16;;;;;;;7.17;5.40;;;23.50;40.70;;;;;;5076324;28;20471;-73
2022/05/05 08:57:45;;;;;;;13.60;8.07;;;23.70;40.80;;;;;;5077677;28;20460;-73
2022/05/05 09:00:14;;;;;;;8.23;5.50;;;24.00;38.60;;;;;;5077732;28;20464;-73
2022/05/05 09:02:41;;;;;;;14.73;6.90;;;24.20;39.00;;;;;;5078041;28;20461;-73
2022/05/05 09:05:10;;;;;;;9.57;5.57;;;24.50;39.60;;;;;;5078902;28;20508;-73
2022/05/05 09:07:48;;;;;;;7.80;4.40;;;24.80;39.30;;;;;;5078068;28;20440;-73
2022/05/05 09:10:15;;;;;;;12.57;9.17;;;25.20;38.90;;;;;;5076496;28;20510;-73
2022/05/05 09:12:55;;;;;;;14.47;9.70;;;25.50;37.10;;;;;;5076257;28;20484;-73
2022/05/05 09:15:31;;;;;;;11.23;7.30;;;25.50;34.80;;;;;;5077192;28;20440;-73
2022/05/05 09:18:11;;;;;;;13.87;10.00;;;25.40;35.40;;;;;;5076936;28;20475;-73
2022/05/05 09:20:38;;;;;;;14.50;9.57;;;25.50;35.10;;;;;;5077048;28;20440;-73
2022/05/05 09:23:05;;;;;;;16.13;7.90;;;25.50;34.10;;;;;;5077037;28;20812;-73
2022/05/05 09:25:45;;;;;;;10.13;6.97;;;25.50;34.60;;;;;;5078049;28;20453;-73
2022/05/05 09:28:23;;;;;;;13.73;8.10;;;25.80;36.00;;;;;;5077105;28;20463;-73
2022/05/05 09:30:51;;;;;;;9.97;8.67;;;26.00;35.10;;;;;;5076809;28;21011;-73
2022/05/05 09:33:35;;;;;;;11.50;6.73;;;26.20;34.90;;;;;;5077441;28;20456;-74
2022/05/05 09:36:04;;;;;;;9.90;7.77;;;26.20;34.40;;;;;;5077968;28;20440;-74
2022/05/05 09:38:52;;;;;;;15.37;9.67;;;26.50;34.40;;;;;;5077552;28;20552;-73
2022/05/05 09:41:19;;;;;;;15.00;9.17;;;26.60;32.40;;;;;;5077068;28;20464;-73
2022/05/05 09:43:47;;;;;;;13.33;9.20;;;26.60;32.30;;;;;;5076701;28;20468;-73
2022/05/05 09:46:31;;;;;;;14.47;9.57;;;26.60;32.00;;;;;;5076325;28;20454;-72
2022/05/05 09:49:07;;;;;;;11.03;8.67;;;26.60;32.20;;;;;;5076761;28;20505;-72
2022/05/05 09:51:36;;;;;;;12.07;9.40;;;26.50;32.60;;;;;;5076460;28;20492;-72
2022/05/05 09:59:40;;;;;;;14.70;10.03;;;27.40;32.90;;;;;;5076525;28;20463;-72
2022/05/05 10:02:15;;;;;;;13.30;9.10;;;27.80;31.30;;;;;;5076647;28;21053;-72
2022/05/05 10:04:48;;;;;;;11.73;10.53;;;28.10;30.60;;;;;;5076311;28;20436;-72
2022/05/05 10:07:18;;;;;;;12.10;8.07;;;28.40;29.30;;;;;;5075778;28;20900;-72
2022/05/05 10:09:47;;;;;;;8.93;6.77;;;28.60;30.40;;;;;;5075517;28;20506;-71
2022/05/05 10:12:15;;;;;;;9.87;7.17;;;29.10;30.20;;;;;;5075653;28;20472;-71
2022/05/05 10:14:43;;;;;;;11.50;7.70;;;29.70;29.90;;;;;;5075609;28;20955;-72
2022/05/05 10:17:12;;;;;;;10.20;7.37;;;30.20;29.20;;;;;;5076723;28;20459;-72
2022/05/05 10:19:39;;;;;;;13.03;7.57;;;30.30;27.90;;;;;;5075913;28;20448;-72
2022/05/05 10:22:13;;;;;;;13.60;9.93;;;30.30;27.90;;;;;;5074851;28;20498;-72
2022/05/05 10:24:44;;;;;;;9.60;8.17;;;30.40;27.90;;;;;;5075255;28;21052;-72
2022/05/05 10:27:12;;;;;;;12.70;8.70;;;30.70;27.50;;;;;;5075566;28;20441;-72
2022/05/05 10:29:40;;;;;;;7.47;6.00;;;31.00;27.40;;;;;;5075945;28;20456;-72
2022/05/05 10:32:11;;;;;;;9.30;6.40;;;31.10;26.60;;;;;;5075975;28;21040;-72
2022/05/05 10:34:39;;;;;;;8.10;7.13;;;31.00;27.00;;;;;;5076984;28;20433;-72
2022/05/05 10:37:08;;;;;;;12.93;11.33;;;30.80;26.50;;;;;;5076221;28;20445;-72
2022/05/05 10:39:46;;;;;;;11.77;9.13;;;30.50;26.00;;;;;;5075044;28;20447;-72
2022/05/05 10:42:15;;;;;;;10.23;9.20;;;30.10;26.40;;;;;;5074950;28;20830;-72
2022/05/05 10:45:12;;;;;;;12.30;10.17;;;29.80;26.70;;;;;;5074669;28;20464;-72
2022/05/05 10:48:17;;;;;;;11.03;9.33;;;29.30;26.40;;;;;;5074932;28;20455;-72
2022/05/05 10:50:56;;;;;;;12.13;10.03;;;29.00;27.10;;;;;;5075227;28;20440;-71
2022/05/05 10:53:31;;;;;;;9.90;8.60;;;28.70;27.40;;;;;;5075102;28;20436;-71
2022/05/05 10:55:59;;;;;;;9.00;6.90;;;28.50;28.20;;;;;;5075113;28;20431;-72
2022/05/05 10:59:04;;;;;;;13.97;9.87;;;28.50;28.20;;;;;;5075185;28;20449;-72
2022/05/05 11:01:57;;;;;;;12.47;10.10;;;28.60;27.70;;;;;;5075170;28;20460;-72
2022/05/05 11:04:28;;;;;;;11.17;7.47;;;28.60;28.20;;;;;;5074834;28;20433;-72
2022/05/05 11:07:25;;;;;;;8.67;7.77;;;29.10;27.90;;;;;;5074701;28;20469;-72
2022/05/05 11:09:52;;;;;;;12.63;10.10;;;30.00;28.30;;;;;;5074468;28;20435;-72
2022/05/05 11:12:20;;;;;;;12.43;10.80;;;31.10;26.80;;;;;;5074227;28;20499;-72
2022/05/05 11:23:29;;;;;;;10.27;9.00;;;33.80;23.10;;;;;;5074430;28;20399;-72
2022/05/05 11:25:56;;;;;;;11.53;10.43;;;34.60;23.10;;;;;;5074337;28;20452;-72
2022/05/05 11:28:23;;;;;;;7.20;6.50;;;35.30;21.20;;;;;;5074677;28;20440;-72
2022/05/05 11:30:50;;;;;;;10.03;6.90;;;36.00;21.10;;;;;;5075267;28;20452;-72
2022/05/05 11:33:20;;;;;;;12.13;10.50;;;36.70;20.70;;;;;;5074567;28;20471;-72
2022/05/05 11:35:57;;;;;;;12.17;9.73;;;37.60;20.00;;;;;;5077316;28;20850;-72
2022/05/05 11:38:28;;;;;;;10.93;9.83;;;38.10;19.20;;;;;;5078433;28;20278;-72
2022/05/05 11:41:04;;;;;;;9.65;8.10;;;38.40;19.20;;;;;;5078034;28;20716;-72
2022/05/05 11:46:18;;;;;;;11.27;10.37;;;37.90;18.50;;;;;;5078088;28;20188;-71
2022/05/05 11:48:52;;;;;;;10.50;9.00;;;37.40;18.20;;;;;;5078841;28;20293;-72
2022/05/05 11:51:22;;;;;;;9.63;7.90;;;37.30;19.20;;;;;;5078211;28;20275;-71
2022/05/05 11:53:49;;;;;;;12.13;9.53;;;37.40;18.80;;;;;;5078798;28;20563;-71
2022/05/05 11:56:18;;;;;;;11.23;10.03;;;37.50;18.20;;;;;;5078416;28;20190;-71
2022/05/05 12:01:39;;;;;;;10.63;9.60;;;37.50;19.00;;;;;;5077783;28;20209;-70
2022/05/05 12:04:10;;;;;;;10.98;9.93;;;38.00;19.10;;;;;;5076748;28;20567;-71
2022/05/05 12:06:38;;;;;;;10.65;9.65;;;38.20;17.90;;;;;;5077215;28;20277;-71
2022/05/05 12:09:07;;;;;;;10.98;9.15;;;38.20;18.00;;;;;;5076971;28;20560;-70
2022/05/05 12:11:36;;;;;;;11.30;10.02;;;38.20;17.70;;;;;;5076805;28;20704;-70
2022/05/05 12:14:06;;;;;;;10.55;8.90;;;38.20;17.40;;;;;;5077782;28;20201;-71
2022/05/05 12:16:35;;;;;;;12.30;9.50;;;38.60;17.50;;;;;;5078927;28;20614;-71
2022/05/05 12:19:11;;;;;;;9.35;8.25;;;39.10;17.50;;;;;;5076564;28;20186;-71
2022/05/05 12:21:39;;;;;;;11.00;9.82;;;39.40;17.30;;;;;;5076578;28;20582;-70
2022/05/05 12:24:06;;;;;;;8.93;7.93;;;39.80;17.00;;;;;;5077266;28;20186;-70
2022/05/05 12:26:36;;;;;;;9.93;8.75;;;40.00;17.20;;;;;;5076313;28;20208;-70
2022/05/05 12:29:12;;;;;;;7.63;6.60;;;40.20;16.00;;;;;;5076118;28;20684;-70
2022/05/05 12:31:40;;;;;;;8.05;7.20;;;40.40;16.50;;;;;;5076525;28;20229;-70
2022/05/05 12:34:07;;;;;;;11.13;6.88;;;40.90;17.30;;;;;;5076648;28;20205;-72
2022/05/05 12:36:34;;;;;;;7.68;6.45;;;41.50;16.90;;;;;;5076491;28;20209;-72
2022/05/05 12:39:11;;;;;;;7.53;6.82;;;42.00;16.50;;;;;;5077071;28;20202;-71
2022/05/05 12:42:02;;;;;;;8.85;7.40;;;42.60;16.20;;;;;;5077891;28;20578;-71
2022/05/05 12:44:33;;;;;;;8.27;7.38;;;42.90;15.60;;;;;;5077264;28;20214;-71
2022/05/05 12:47:04;;;;;;;12.23;9.55;;;43.20;15.40;;;;;;5076831;28;20209;-71
2022/05/05 12:49:35;;;;;;;12.38;9.80;;;42.70;15.30;;;;;;5076631;28;20209;-71
2022/05/05 12:52:02;;;;;;;11.68;10.50;;;41.60;15.50;;;;;;5076100;28;20265;-71
2022/05/05 12:59:58;;;;;;;8.52;7.78;;;40.60;17.20;;;;;;5076600;28;20194;-72
2022/05/05 13:02:25;;;;;;;9.63;8.80;;;41.30;16.30;;;;;;5076303;28;20300;-71
2022/05/05 13:04:52;;;;;;;14.50;7.82;;;41.80;16.10;;;;;;5075649;28;20205;-71
2022/05/05 13:07:19;;;;;;;10.73;9.63;;;41.90;16.70;;;;;;5075982;28;20206;-72
2022/05/05 13:09:46;;;;;;;7.47;6.88;;;42.20;15.70;;;;;;5076793;28;20592;-71
2022/05/05 13:12:14;;;;;;;8.27;7.57;;;42.60;15.60;;;;;;5076434;28;20229;-72
2022/05/05 13:14:40;;;;;;;9.30;8.50;;;43.00;15.60;;;;;;5075882;28;20700;-72
2022/05/05 13:17:08;;;;;;;10.15;9.18;;;43.20;14.90;;;;;;5076093;28;20209;-72
2022/05/05 13:19:34;;;;;;;15.23;10.00;;;42.50;14.80;;;;;;5076072;28;20210;-71
2022/05/05 13:22:02;;;;;;;11.77;10.77;;;41.50;15.00;;;;;;5076260;28;20224;-71
2022/05/05 13:24:29;;;;;;;12.25;10.60;;;40.90;15.70;;;;;;5076294;28;20190;-72
2022/05/05 13:26:57;;;;;;;11.07;9.52;;;40.70;16.20;;;;;;5075848;28;20629;-71
2022/05/05 13:29:25;;;;;;;9.40;8.23;;;40.70;15.60;;;;;;5075607;28;20610;-72
2022/05/05 13:31:52;;;;;;;9.95;8.98;;;40.80;15.90;;;;;;5076063;28;20221;-71